sensor_id;sensor_type;location;lat;lon;timestamp;P1;durP1;ratioP1;P2;durP2;ratioP2
33678;SDS011;23143;49.474;11.082;2022-12-18T00:00:03;21.03;;;7.40;;
33678;SDS011;23143;49.474;11.082;2022-12-18T00:00:39;21.30;;;10.20;;
33678;SDS011;23143;49.474;11.082;2022-12-18T00:01:48;24.17;;;8.60;;
33678;SDS011;23143;49.474;11.082;2022-12-18T00:02:19;23.30;;;8.37;;
33678;SDS011;23143;49.474;11.082;2022-12-18T00:02:49;12.93;;;5.90;;
33678;SDS011;23143;49.474;11.082;2022-12-18T00:03:20;12.53;;;7.83;;
33678;SDS011;23143;49.474;11.082;2022-12-18T00:03:52;10.15;;;4.68;;
33678;SDS011;23143;49.474;11.082;2022-12-18T00:04:24;5.28;;;4.53;;
33678;SDS011;23143;49.474;11.082;2022-12-18T00:04:55;13.88;;;8.15;;
33678;SDS011;23143;49.474;11.082;2022-12-18T00:05:26;13.30;;;6.67;;
33678;SDS011;23143;49.474;11.082;2022-12-18T00:05:57;24.00;;;11.23;;
33678;SDS011;23143;49.474;11.082;2022-12-18T00:06:28;12.13;;;6.40;;
33678;SDS011;23143;49.474;11.082;2022-12-18T00:06:59;12.27;;;7.28;;
33678;SDS011;23143;49.474;11.082;2022-12-18T00:07:30;12.93;;;7.27;;
33678;SDS011;23143;49.474;11.082;2022-12-18T00:08:00;20.73;;;11.20;;
33678;SDS011;23143;49.474;11.082;2022-12-18T00:08:31;27.10;;;8.67;;
33678;SDS011;23143;49.474;11.082;2022-12-18T00:09:02;19.33;;;9.10;;
33678;SDS011;23143;49.474;11.082;2022-12-18T00:09:33;17.10;;;8.57;;
33678;SDS011;23143;49.474;11.082;2022-12-18T00:10:04;20.43;;;8.23;;
33678;SDS011;23143;49.474;11.082;2022-12-18T00:10:35;16.88;;;9.88;;
33678;SDS011;23143;49.474;11.082;2022-12-18T00:11:07;14.60;;;8.70;;
33678;SDS011;23143;49.474;11.082;2022-12-18T00:11:39;15.10;;;10.27;;
33678;SDS011;23143;49.474;11.082;2022-12-18T00:12:09;23.07;;;7.93;;
33678;SDS011;23143;49.474;11.082;2022-12-18T00:12:40;21.83;;;8.57;;
33678;SDS011;23143;49.474;11.082;2022-12-18T00:13:11;14.77;;;8.80;;
33678;SDS011;23143;49.474;11.082;2022-12-18T00:13:42;17.42;;;7.95;;
33678;SDS011;23143;49.474;11.082;2022-12-18T00:14:13;16.38;;;9.23;;
33678;SDS011;23143;49.474;11.082;2022-12-18T00:14:44;33.60;;;16.20;;
33678;SDS011;23143;49.474;11.082;2022-12-18T00:15:15;24.80;;;13.17;;
33678;SDS011;23143;49.474;11.082;2022-12-18T00:15:46;25.43;;;12.13;;
33678;SDS011;23143;49.474;11.082;2022-12-18T00:16:17;16.17;;;10.60;;
33678;SDS011;23143;49.474;11.082;2022-12-18T00:16:52;13.95;;;8.50;;
33678;SDS011;23143;49.474;11.082;2022-12-18T00:17:23;13.10;;;8.87;;
33678;SDS011;23143;49.474;11.082;2022-12-18T00:17:53;20.07;;;8.73;;
33678;SDS011;23143;49.474;11.082;2022-12-18T00:18:24;19.37;;;8.90;;
33678;SDS011;23143;49.474;11.082;2022-12-18T00:18:56;20.47;;;10.33;;
33678;SDS011;23143;49.474;11.082;2022-12-18T00:19:27;16.45;;;8.43;;
33678;SDS011;23143;49.474;11.082;2022-12-18T00:19:57;16.40;;;12.23;;
33678;SDS011;23143;49.474;11.082;2022-12-18T00:20:28;21.00;;;8.60;;
33678;SDS011;23143;49.474;11.082;2022-12-18T00:20:59;14.50;;;8.60;;
33678;SDS011;23143;49.474;11.082;2022-12-18T00:21:34;14.10;;;8.07;;
33678;SDS011;23143;49.474;11.082;2022-12-18T00:22:05;18.27;;;9.60;;
33678;SDS011;23143;49.474;11.082;2022-12-18T00:22:36;19.63;;;7.77;;
33678;SDS011;23143;49.474;11.082;2022-12-18T00:23:07;14.30;;;7.47;;
33678;SDS011;23143;49.474;11.082;2022-12-18T00:23:38;16.13;;;6.07;;
33678;SDS011;23143;49.474;11.082;2022-12-18T00:24:10;15.18;;;8.90;;
33678;SDS011;23143;49.474;11.082;2022-12-18T00:24:41;13.23;;;8.25;;
33678;SDS011;23143;49.474;11.082;2022-12-18T00:25:11;27.67;;;10.83;;
33678;SDS011;23143;49.474;11.082;2022-12-18T00:25:42;10.97;;;6.73;;
33678;SDS011;23143;49.474;11.082;2022-12-18T00:26:14;23.80;;;8.63;;
33678;SDS011;23143;49.474;11.082;2022-12-18T00:26:49;14.40;;;7.75;;
33678;SDS011;23143;49.474;11.082;2022-12-18T00:27:20;23.63;;;9.53;;
33678;SDS011;23143;49.474;11.082;2022-12-18T00:27:50;13.67;;;8.07;;
33678;SDS011;23143;49.474;11.082;2022-12-18T00:28:21;13.17;;;8.63;;
33678;SDS011;23143;49.474;11.082;2022-12-18T00:28:52;18.73;;;9.63;;
33678;SDS011;23143;49.474;11.082;2022-12-18T00:29:23;21.95;;;10.32;;
33678;SDS011;23143;49.474;11.082;2022-12-18T00:29:54;17.63;;;10.27;;
33678;SDS011;23143;49.474;11.082;2022-12-18T00:30:24;21.43;;;10.13;;
33678;SDS011;23143;49.474;11.082;2022-12-18T00:31:05;28.90;;;9.53;;
33678;SDS011;23143;49.474;11.082;2022-12-18T00:31:40;20.65;;;7.22;;
33678;SDS011;23143;49.474;11.082;2022-12-18T00:32:12;10.38;;;6.65;;
33678;SDS011;23143;49.474;11.082;2022-12-18T00:32:42;10.10;;;7.80;;
33678;SDS011;23143;49.474;11.082;2022-12-18T00:33:13;10.60;;;6.13;;
33678;SDS011;23143;49.474;11.082;2022-12-18T00:33:44;18.30;;;7.80;;
33678;SDS011;23143;49.474;11.082;2022-12-18T00:34:14;7.67;;;5.57;;
33678;SDS011;23143;49.474;11.082;2022-12-18T00:34:45;8.53;;;5.93;;
33678;SDS011;23143;49.474;11.082;2022-12-18T00:35:16;16.80;;;9.37;;
33678;SDS011;23143;49.474;11.082;2022-12-18T00:35:47;10.93;;;7.80;;
33678;SDS011;23143;49.474;11.082;2022-12-18T00:36:21;13.37;;;7.33;;
33678;SDS011;23143;49.474;11.082;2022-12-18T00:36:54;18.02;;;7.75;;
33678;SDS011;23143;49.474;11.082;2022-12-18T00:37:25;9.07;;;7.37;;
33678;SDS011;23143;49.474;11.082;2022-12-18T00:37:55;13.03;;;7.87;;
33678;SDS011;23143;49.474;11.082;2022-12-18T00:38:26;25.53;;;10.67;;
33678;SDS011;23143;49.474;11.082;2022-12-18T00:38:57;11.37;;;6.93;;
33678;SDS011;23143;49.474;11.082;2022-12-18T00:39:28;12.88;;;7.97;;
33678;SDS011;23143;49.474;11.082;2022-12-18T00:39:59;16.33;;;8.07;;
33678;SDS011;23143;49.474;11.082;2022-12-18T00:40:30;12.37;;;5.73;;
33678;SDS011;23143;49.474;11.082;2022-12-18T00:41:01;18.70;;;7.47;;
33678;SDS011;23143;49.474;11.082;2022-12-18T00:41:32;26.02;;;9.88;;
33678;SDS011;23143;49.474;11.082;2022-12-18T00:42:26;11.05;;;6.07;;
33678;SDS011;23143;49.474;11.082;2022-12-18T00:43:15;10.00;;;4.97;;
33678;SDS011;23143;49.474;11.082;2022-12-18T00:43:46;22.90;;;9.17;;
33678;SDS011;23143;49.474;11.082;2022-12-18T00:44:17;11.43;;;6.90;;
33678;SDS011;23143;49.474;11.082;2022-12-18T00:44:48;10.23;;;8.15;;
33678;SDS011;23143;49.474;11.082;2022-12-18T00:45:19;9.37;;;7.10;;
33678;SDS011;23143;49.474;11.082;2022-12-18T00:45:50;12.73;;;7.90;;
33678;SDS011;23143;49.474;11.082;2022-12-18T00:46:20;17.20;;;9.13;;
33678;SDS011;23143;49.474;11.082;2022-12-18T00:46:51;12.23;;;8.07;;
33678;SDS011;23143;49.474;11.082;2022-12-18T00:47:22;22.83;;;9.57;;
33678;SDS011;23143;49.474;11.082;2022-12-18T00:47:52;17.97;;;8.37;;
33678;SDS011;23143;49.474;11.082;2022-12-18T00:48:23;10.60;;;6.07;;
33678;SDS011;23143;49.474;11.082;2022-12-18T00:48:54;13.63;;;6.60;;
33678;SDS011;23143;49.474;11.082;2022-12-18T00:49:24;18.10;;;7.67;;
33678;SDS011;23143;49.474;11.082;2022-12-18T00:49:55;15.43;;;6.20;;
33678;SDS011;23143;49.474;11.082;2022-12-18T00:50:26;11.27;;;8.07;;
33678;SDS011;23143;49.474;11.082;2022-12-18T00:50:56;14.00;;;10.37;;
33678;SDS011;23143;49.474;11.082;2022-12-18T00:51:27;22.03;;;9.80;;
33678;SDS011;23143;49.474;11.082;2022-12-18T00:51:58;13.07;;;7.67;;
33678;SDS011;23143;49.474;11.082;2022-12-18T00:52:29;12.87;;;8.67;;
33678;SDS011;23143;49.474;11.082;2022-12-18T00:52:59;16.00;;;7.20;;
33678;SDS011;23143;49.474;11.082;2022-12-18T00:53:30;13.13;;;7.47;;
33678;SDS011;23143;49.474;11.082;2022-12-18T00:54:01;11.43;;;7.93;;
33678;SDS011;23143;49.474;11.082;2022-12-18T00:54:31;18.07;;;6.40;;
33678;SDS011;23143;49.474;11.082;2022-12-18T00:55:02;17.47;;;9.33;;
33678;SDS011;23143;49.474;11.082;2022-12-18T00:55:33;17.83;;;7.60;;
33678;SDS011;23143;49.474;11.082;2022-12-18T00:56:04;23.93;;;7.30;;
33678;SDS011;23143;49.474;11.082;2022-12-18T00:56:36;21.00;;;9.90;;
33678;SDS011;23143;49.474;11.082;2022-12-18T00:57:07;9.98;;;6.47;;
33678;SDS011;23143;49.474;11.082;2022-12-18T00:57:38;10.50;;;7.37;;
33678;SDS011;23143;49.474;11.082;2022-12-18T00:58:09;14.40;;;7.70;;
33678;SDS011;23143;49.474;11.082;2022-12-18T00:58:41;10.93;;;7.53;;
33678;SDS011;23143;49.474;11.082;2022-12-18T00:59:11;15.70;;;8.07;;
33678;SDS011;23143;49.474;11.082;2022-12-18T00:59:42;16.83;;;7.13;;
33678;SDS011;23143;49.474;11.082;2022-12-18T01:00:13;19.87;;;8.30;;
33678;SDS011;23143;49.474;11.082;2022-12-18T01:00:44;9.93;;;5.03;;
33678;SDS011;23143;49.474;11.082;2022-12-18T01:01:16;17.77;;;6.53;;
33678;SDS011;23143;49.474;11.082;2022-12-18T01:01:47;15.85;;;6.20;;
33678;SDS011;23143;49.474;11.082;2022-12-18T01:02:17;11.70;;;7.17;;
33678;SDS011;23143;49.474;11.082;2022-12-18T01:02:48;14.23;;;8.33;;
33678;SDS011;23143;49.474;11.082;2022-12-18T01:03:19;15.13;;;6.77;;
33678;SDS011;23143;49.474;11.082;2022-12-18T01:03:50;10.40;;;5.47;;
33678;SDS011;23143;49.474;11.082;2022-12-18T01:04:20;10.37;;;5.77;;
33678;SDS011;23143;49.474;11.082;2022-12-18T01:04:51;16.03;;;7.40;;
33678;SDS011;23143;49.474;11.082;2022-12-18T01:05:22;18.27;;;7.13;;
33678;SDS011;23143;49.474;11.082;2022-12-18T01:05:52;10.77;;;6.73;;
33678;SDS011;23143;49.474;11.082;2022-12-18T01:06:23;8.03;;;6.80;;
33678;SDS011;23143;49.474;11.082;2022-12-18T01:06:53;7.87;;;5.33;;
33678;SDS011;23143;49.474;11.082;2022-12-18T01:07:24;12.47;;;6.53;;
33678;SDS011;23143;49.474;11.082;2022-12-18T01:07:55;18.83;;;5.97;;
33678;SDS011;23143;49.474;11.082;2022-12-18T01:08:26;12.18;;;5.32;;
33678;SDS011;23143;49.474;11.082;2022-12-18T01:08:57;19.20;;;6.97;;
33678;SDS011;23143;49.474;11.082;2022-12-18T01:09:28;8.23;;;4.93;;
33678;SDS011;23143;49.474;11.082;2022-12-18T01:09:58;15.60;;;6.43;;
33678;SDS011;23143;49.474;11.082;2022-12-18T01:10:29;10.90;;;5.67;;
33678;SDS011;23143;49.474;11.082;2022-12-18T01:11:00;8.47;;;5.17;;
33678;SDS011;23143;49.474;11.082;2022-12-18T01:11:31;16.23;;;5.17;;
33678;SDS011;23143;49.474;11.082;2022-12-18T01:12:02;7.07;;;5.27;;
33678;SDS011;23143;49.474;11.082;2022-12-18T01:12:33;11.97;;;6.27;;
33678;SDS011;23143;49.474;11.082;2022-12-18T01:13:04;6.17;;;4.33;;
33678;SDS011;23143;49.474;11.082;2022-12-18T01:13:34;8.63;;;7.30;;
33678;SDS011;23143;49.474;11.082;2022-12-18T01:14:05;5.03;;;4.53;;
33678;SDS011;23143;49.474;11.082;2022-12-18T01:14:36;13.50;;;6.90;;
33678;SDS011;23143;49.474;11.082;2022-12-18T01:15:09;10.68;;;5.68;;
33678;SDS011;23143;49.474;11.082;2022-12-18T01:15:40;9.77;;;5.70;;
33678;SDS011;23143;49.474;11.082;2022-12-18T01:16:19;4.80;;;4.32;;
33678;SDS011;23143;49.474;11.082;2022-12-18T01:16:49;7.67;;;5.90;;
33678;SDS011;23143;49.474;11.082;2022-12-18T01:17:20;7.23;;;5.63;;
33678;SDS011;23143;49.474;11.082;2022-12-18T01:17:52;12.15;;;6.20;;
33678;SDS011;23143;49.474;11.082;2022-12-18T01:18:23;5.78;;;4.45;;
33678;SDS011;23143;49.474;11.082;2022-12-18T01:18:54;6.67;;;5.10;;
33678;SDS011;23143;49.474;11.082;2022-12-18T01:19:25;6.15;;;4.28;;
33678;SDS011;23143;49.474;11.082;2022-12-18T01:19:55;7.50;;;4.70;;
33678;SDS011;23143;49.474;11.082;2022-12-18T01:20:26;13.10;;;4.90;;
33678;SDS011;23143;49.474;11.082;2022-12-18T01:20:57;6.33;;;4.00;;
33678;SDS011;23143;49.474;11.082;2022-12-18T01:21:27;11.70;;;6.33;;
33678;SDS011;23143;49.474;11.082;2022-12-18T01:21:58;9.47;;;4.90;;
33678;SDS011;23143;49.474;11.082;2022-12-18T01:22:29;11.88;;;5.05;;
33678;SDS011;23143;49.474;11.082;2022-12-18T01:23:00;10.23;;;5.93;;
33678;SDS011;23143;49.474;11.082;2022-12-18T01:23:30;6.30;;;5.07;;
33678;SDS011;23143;49.474;11.082;2022-12-18T01:24:01;11.37;;;6.47;;
33678;SDS011;23143;49.474;11.082;2022-12-18T01:24:32;7.00;;;3.73;;
33678;SDS011;23143;49.474;11.082;2022-12-18T01:25:03;18.57;;;6.30;;
33678;SDS011;23143;49.474;11.082;2022-12-18T01:25:36;9.63;;;5.83;;
33678;SDS011;23143;49.474;11.082;2022-12-18T01:26:09;17.42;;;6.50;;
33678;SDS011;23143;49.474;11.082;2022-12-18T01:26:41;10.02;;;5.85;;
33678;SDS011;23143;49.474;11.082;2022-12-18T01:27:12;10.33;;;4.90;;
33678;SDS011;23143;49.474;11.082;2022-12-18T01:27:43;14.40;;;6.07;;
33678;SDS011;23143;49.474;11.082;2022-12-18T01:28:13;14.57;;;7.37;;
33678;SDS011;23143;49.474;11.082;2022-12-18T01:28:44;8.83;;;4.73;;
33678;SDS011;23143;49.474;11.082;2022-12-18T01:29:15;10.30;;;6.00;;
33678;SDS011;23143;49.474;11.082;2022-12-18T01:29:45;9.80;;;6.10;;
33678;SDS011;23143;49.474;11.082;2022-12-18T01:30:16;21.40;;;6.57;;
33678;SDS011;23143;49.474;11.082;2022-12-18T01:30:47;12.07;;;7.67;;
33678;SDS011;23143;49.474;11.082;2022-12-18T01:31:22;9.90;;;6.67;;
33678;SDS011;23143;49.474;11.082;2022-12-18T01:31:55;9.68;;;5.75;;
33678;SDS011;23143;49.474;11.082;2022-12-18T01:32:26;7.85;;;5.25;;
33678;SDS011;23143;49.474;11.082;2022-12-18T01:33:00;10.43;;;6.45;;
33678;SDS011;23143;49.474;11.082;2022-12-18T01:33:31;36.57;;;7.10;;
33678;SDS011;23143;49.474;11.082;2022-12-18T01:34:02;10.97;;;9.93;;
33678;SDS011;23143;49.474;11.082;2022-12-18T01:34:37;18.77;;;5.57;;
33678;SDS011;23143;49.474;11.082;2022-12-18T01:35:07;13.50;;;7.07;;
33678;SDS011;23143;49.474;11.082;2022-12-18T01:35:42;7.87;;;5.93;;
33678;SDS011;23143;49.474;11.082;2022-12-18T01:36:17;14.10;;;6.50;;
33678;SDS011;23143;49.474;11.082;2022-12-18T01:36:49;4.28;;;3.92;;
33678;SDS011;23143;49.474;11.082;2022-12-18T01:37:23;7.82;;;5.30;;
33678;SDS011;23143;49.474;11.082;2022-12-18T01:37:54;6.10;;;4.55;;
33678;SDS011;23143;49.474;11.082;2022-12-18T01:38:25;15.13;;;4.53;;
33678;SDS011;23143;49.474;11.082;2022-12-18T01:38:56;23.17;;;9.20;;
33678;SDS011;23143;49.474;11.082;2022-12-18T01:39:29;10.52;;;7.18;;
33678;SDS011;23143;49.474;11.082;2022-12-18T01:39:59;4.97;;;4.30;;
33678;SDS011;23143;49.474;11.082;2022-12-18T01:40:30;5.80;;;3.53;;
33678;SDS011;23143;49.474;11.082;2022-12-18T01:41:01;12.03;;;6.40;;
33678;SDS011;23143;49.474;11.082;2022-12-18T01:41:32;11.75;;;5.45;;
33678;SDS011;23143;49.474;11.082;2022-12-18T01:42:22;5.00;;;3.67;;
33678;SDS011;23143;49.474;11.082;2022-12-18T01:42:53;3.37;;;3.07;;
33678;SDS011;23143;49.474;11.082;2022-12-18T01:43:46;7.07;;;4.03;;
33678;SDS011;23143;49.474;11.082;2022-12-18T01:45:26;5.30;;;4.93;;
33678;SDS011;23143;49.474;11.082;2022-12-18T01:45:59;3.38;;;2.50;;
33678;SDS011;23143;49.474;11.082;2022-12-18T01:46:29;7.15;;;4.10;;
33678;SDS011;23143;49.474;11.082;2022-12-18T01:47:00;4.53;;;3.67;;
33678;SDS011;23143;49.474;11.082;2022-12-18T01:48:10;12.75;;;4.57;;
33678;SDS011;23143;49.474;11.082;2022-12-18T01:48:41;14.17;;;3.47;;
33678;SDS011;23143;49.474;11.082;2022-12-18T01:49:12;8.97;;;5.87;;
33678;SDS011;23143;49.474;11.082;2022-12-18T01:49:43;17.43;;;7.57;;
33678;SDS011;23143;49.474;11.082;2022-12-18T01:50:47;15.97;;;6.73;;
33678;SDS011;23143;49.474;11.082;2022-12-18T01:51:17;10.40;;;5.97;;
33678;SDS011;23143;49.474;11.082;2022-12-18T01:51:48;9.70;;;6.80;;
33678;SDS011;23143;49.474;11.082;2022-12-18T01:52:19;5.47;;;4.57;;
33678;SDS011;23143;49.474;11.082;2022-12-18T01:53:21;23.37;;;7.50;;
33678;SDS011;23143;49.474;11.082;2022-12-18T01:53:53;10.48;;;6.25;;
33678;SDS011;23143;49.474;11.082;2022-12-18T01:54:24;20.60;;;7.60;;
33678;SDS011;23143;49.474;11.082;2022-12-18T01:54:54;7.83;;;5.50;;
33678;SDS011;23143;49.474;11.082;2022-12-18T01:55:26;14.30;;;8.02;;
33678;SDS011;23143;49.474;11.082;2022-12-18T01:55:59;7.55;;;5.80;;
33678;SDS011;23143;49.474;11.082;2022-12-18T01:56:31;9.85;;;7.28;;
33678;SDS011;23143;49.474;11.082;2022-12-18T01:57:01;22.17;;;9.40;;
33678;SDS011;23143;49.474;11.082;2022-12-18T01:57:32;11.33;;;6.17;;
33678;SDS011;23143;49.474;11.082;2022-12-18T01:58:03;7.97;;;6.23;;
33678;SDS011;23143;49.474;11.082;2022-12-18T01:58:40;16.92;;;6.25;;
33678;SDS011;23143;49.474;11.082;2022-12-18T01:59:11;8.07;;;5.03;;
33678;SDS011;23143;49.474;11.082;2022-12-18T01:59:44;13.33;;;6.53;;
33678;SDS011;23143;49.474;11.082;2022-12-18T02:00:17;9.68;;;5.85;;
33678;SDS011;23143;49.474;11.082;2022-12-18T02:00:49;11.68;;;8.30;;
33678;SDS011;23143;49.474;11.082;2022-12-18T02:01:21;6.93;;;5.67;;
33678;SDS011;23143;49.474;11.082;2022-12-18T02:01:52;18.15;;;7.03;;
33678;SDS011;23143;49.474;11.082;2022-12-18T02:02:23;12.43;;;4.87;;
33678;SDS011;23143;49.474;11.082;2022-12-18T02:02:54;17.00;;;8.67;;
33678;SDS011;23143;49.474;11.082;2022-12-18T02:03:25;18.20;;;9.30;;
33678;SDS011;23143;49.474;11.082;2022-12-18T02:04:21;17.60;;;9.23;;
33678;SDS011;23143;49.474;11.082;2022-12-18T02:04:50;2.90;;;2.28;;
33678;SDS011;23143;49.474;11.082;2022-12-18T02:06:47;12.95;;;4.13;;
33678;SDS011;23143;49.474;11.082;2022-12-18T02:09:09;2.77;;;2.57;;
33678;SDS011;23143;49.474;11.082;2022-12-18T02:09:46;5.93;;;4.15;;
33678;SDS011;23143;49.474;11.082;2022-12-18T02:10:28;7.43;;;4.95;;
33678;SDS011;23143;49.474;11.082;2022-12-18T02:11:40;8.90;;;4.10;;
33678;SDS011;23143;49.474;11.082;2022-12-18T02:12:24;5.63;;;4.50;;
33678;SDS011;23143;49.474;11.082;2022-12-18T02:13:03;11.95;;;5.93;;
33678;SDS011;23143;49.474;11.082;2022-12-18T02:13:59;3.17;;;2.70;;
33678;SDS011;23143;49.474;11.082;2022-12-18T02:14:39;3.85;;;3.45;;
33678;SDS011;23143;49.474;11.082;2022-12-18T02:15:14;5.25;;;3.85;;
33678;SDS011;23143;49.474;11.082;2022-12-18T02:15:54;6.18;;;4.38;;
33678;SDS011;23143;49.474;11.082;2022-12-18T02:17:44;7.65;;;3.83;;
33678;SDS011;23143;49.474;11.082;2022-12-18T02:18:23;6.20;;;3.42;;
33678;SDS011;23143;49.474;11.082;2022-12-18T02:18:59;7.75;;;3.50;;
33678;SDS011;23143;49.474;11.082;2022-12-18T02:19:47;8.50;;;5.80;;
33678;SDS011;23143;49.474;11.082;2022-12-18T02:22:06;4.15;;;3.28;;
33678;SDS011;23143;49.474;11.082;2022-12-18T02:22:48;1.83;;;1.73;;
33678;SDS011;23143;49.474;11.082;2022-12-18T02:26:36;3.33;;;2.60;;
33678;SDS011;23143;49.474;11.082;2022-12-18T02:27:09;1.83;;;1.70;;
33678;SDS011;23143;49.474;11.082;2022-12-18T02:27:41;3.08;;;2.88;;
33678;SDS011;23143;49.474;11.082;2022-12-18T02:28:15;2.22;;;2.00;;
33678;SDS011;23143;49.474;11.082;2022-12-18T02:28:54;3.70;;;2.75;;
33678;SDS011;23143;49.474;11.082;2022-12-18T02:30:22;7.15;;;3.45;;
33678;SDS011;23143;49.474;11.082;2022-12-18T02:30:52;3.47;;;3.20;;
33678;SDS011;23143;49.474;11.082;2022-12-18T02:31:25;6.90;;;3.27;;
33678;SDS011;23143;49.474;11.082;2022-12-18T02:31:58;4.70;;;3.95;;
33678;SDS011;23143;49.474;11.082;2022-12-18T02:32:31;5.13;;;4.57;;
33678;SDS011;23143;49.474;11.082;2022-12-18T02:33:04;13.10;;;6.10;;
33678;SDS011;23143;49.474;11.082;2022-12-18T02:33:36;5.65;;;3.63;;
33678;SDS011;23143;49.474;11.082;2022-12-18T02:34:08;9.02;;;5.07;;
33678;SDS011;23143;49.474;11.082;2022-12-18T02:34:40;10.05;;;6.72;;
33678;SDS011;23143;49.474;11.082;2022-12-18T02:35:29;9.95;;;6.47;;
33678;SDS011;23143;49.474;11.082;2022-12-18T02:36:01;8.48;;;4.25;;
33678;SDS011;23143;49.474;11.082;2022-12-18T02:36:32;8.07;;;4.07;;
33678;SDS011;23143;49.474;11.082;2022-12-18T02:37:04;9.15;;;5.63;;
33678;SDS011;23143;49.474;11.082;2022-12-18T02:37:38;8.32;;;6.13;;
33678;SDS011;23143;49.474;11.082;2022-12-18T02:38:09;6.32;;;5.75;;
33678;SDS011;23143;49.474;11.082;2022-12-18T02:38:41;17.02;;;9.73;;
33678;SDS011;23143;49.474;11.082;2022-12-18T02:39:13;10.57;;;6.22;;
33678;SDS011;23143;49.474;11.082;2022-12-18T02:39:44;24.30;;;8.70;;
33678;SDS011;23143;49.474;11.082;2022-12-18T02:40:23;12.77;;;6.70;;
33678;SDS011;23143;49.474;11.082;2022-12-18T02:40:54;15.13;;;5.85;;
33678;SDS011;23143;49.474;11.082;2022-12-18T02:41:26;14.80;;;8.38;;
33678;SDS011;23143;49.474;11.082;2022-12-18T02:41:57;17.30;;;6.40;;
33678;SDS011;23143;49.474;11.082;2022-12-18T02:42:28;4.72;;;4.28;;
33678;SDS011;23143;49.474;11.082;2022-12-18T02:43:03;9.80;;;5.33;;
33678;SDS011;23143;49.474;11.082;2022-12-18T02:43:38;6.88;;;5.95;;
33678;SDS011;23143;49.474;11.082;2022-12-18T02:44:10;10.53;;;5.57;;
33678;SDS011;23143;49.474;11.082;2022-12-18T02:44:45;7.65;;;4.55;;
33678;SDS011;23143;49.474;11.082;2022-12-18T02:45:17;12.10;;;6.43;;
33678;SDS011;23143;49.474;11.082;2022-12-18T02:45:50;11.07;;;5.47;;
33678;SDS011;23143;49.474;11.082;2022-12-18T02:46:58;7.63;;;6.40;;
33678;SDS011;23143;49.474;11.082;2022-12-18T02:47:29;12.70;;;4.10;;
33678;SDS011;23143;49.474;11.082;2022-12-18T02:48:02;6.90;;;5.22;;
33678;SDS011;23143;49.474;11.082;2022-12-18T02:48:33;15.07;;;5.40;;
33678;SDS011;23143;49.474;11.082;2022-12-18T02:49:06;7.73;;;6.63;;
33678;SDS011;23143;49.474;11.082;2022-12-18T02:50:34;24.75;;;9.82;;
33678;SDS011;23143;49.474;11.082;2022-12-18T02:51:18;9.65;;;5.35;;
33678;SDS011;23143;49.474;11.082;2022-12-18T02:53:49;8.40;;;4.63;;
33678;SDS011;23143;49.474;11.082;2022-12-18T02:56:46;7.35;;;4.28;;
33678;SDS011;23143;49.474;11.082;2022-12-18T02:58:02;4.57;;;4.17;;
33678;SDS011;23143;49.474;11.082;2022-12-18T02:59:33;12.40;;;4.55;;
33678;SDS011;23143;49.474;11.082;2022-12-18T03:00:12;4.00;;;3.63;;
33678;SDS011;23143;49.474;11.082;2022-12-18T03:01:48;8.45;;;6.20;;
33678;SDS011;23143;49.474;11.082;2022-12-18T03:02:46;4.18;;;1.88;;
33678;SDS011;23143;49.474;11.082;2022-12-18T03:03:40;3.90;;;2.92;;
33678;SDS011;23143;49.474;11.082;2022-12-18T03:05:21;4.38;;;2.70;;
33678;SDS011;23143;49.474;11.082;2022-12-18T03:05:56;5.87;;;4.07;;
33678;SDS011;23143;49.474;11.082;2022-12-18T03:06:39;7.53;;;3.47;;
33678;SDS011;23143;49.474;11.082;2022-12-18T03:07:15;4.90;;;3.50;;
33678;SDS011;23143;49.474;11.082;2022-12-18T03:07:51;3.13;;;2.35;;
33678;SDS011;23143;49.474;11.082;2022-12-18T03:08:24;11.55;;;5.72;;
33678;SDS011;23143;49.474;11.082;2022-12-18T03:09:01;3.22;;;2.95;;
33678;SDS011;23143;49.474;11.082;2022-12-18T03:09:35;12.23;;;5.40;;
33678;SDS011;23143;49.474;11.082;2022-12-18T03:10:09;10.88;;;4.47;;
33678;SDS011;23143;49.474;11.082;2022-12-18T03:10:49;5.63;;;4.20;;
33678;SDS011;23143;49.474;11.082;2022-12-18T03:11:24;10.18;;;6.53;;
33678;SDS011;23143;49.474;11.082;2022-12-18T03:12:22;4.07;;;3.75;;
33678;SDS011;23143;49.474;11.082;2022-12-18T03:13:00;7.13;;;5.15;;
33678;SDS011;23143;49.474;11.082;2022-12-18T03:13:41;10.50;;;3.60;;
33678;SDS011;23143;49.474;11.082;2022-12-18T03:14:17;9.40;;;2.63;;
33678;SDS011;23143;49.474;11.082;2022-12-18T03:14:59;6.05;;;3.17;;
33678;SDS011;23143;49.474;11.082;2022-12-18T03:15:39;4.28;;;3.97;;
33678;SDS011;23143;49.474;11.082;2022-12-18T03:16:25;3.97;;;2.03;;
33678;SDS011;23143;49.474;11.082;2022-12-18T03:16:58;3.42;;;3.10;;
33678;SDS011;23143;49.474;11.082;2022-12-18T03:17:31;5.90;;;4.85;;
33678;SDS011;23143;49.474;11.082;2022-12-18T03:18:13;9.85;;;7.43;;
33678;SDS011;23143;49.474;11.082;2022-12-18T03:18:51;11.13;;;5.72;;
33678;SDS011;23143;49.474;11.082;2022-12-18T03:19:25;7.07;;;4.97;;
33678;SDS011;23143;49.474;11.082;2022-12-18T03:20:00;5.97;;;2.72;;
33678;SDS011;23143;49.474;11.082;2022-12-18T03:20:36;7.80;;;3.67;;
33678;SDS011;23143;49.474;11.082;2022-12-18T03:21:08;10.68;;;5.07;;
33678;SDS011;23143;49.474;11.082;2022-12-18T03:21:42;12.23;;;7.28;;
33678;SDS011;23143;49.474;11.082;2022-12-18T03:22:15;19.70;;;6.55;;
33678;SDS011;23143;49.474;11.082;2022-12-18T03:22:47;11.38;;;7.07;;
33678;SDS011;23143;49.474;11.082;2022-12-18T03:23:23;15.40;;;7.03;;
33678;SDS011;23143;49.474;11.082;2022-12-18T03:23:58;6.95;;;3.75;;
33678;SDS011;23143;49.474;11.082;2022-12-18T03:24:29;9.53;;;6.03;;
33678;SDS011;23143;49.474;11.082;2022-12-18T03:25:03;17.67;;;7.03;;
33678;SDS011;23143;49.474;11.082;2022-12-18T03:25:37;6.65;;;3.85;;
33678;SDS011;23143;49.474;11.082;2022-12-18T03:26:10;11.90;;;5.38;;
33678;SDS011;23143;49.474;11.082;2022-12-18T03:26:44;10.95;;;5.50;;
33678;SDS011;23143;49.474;11.082;2022-12-18T03:27:17;14.52;;;6.15;;
33678;SDS011;23143;49.474;11.082;2022-12-18T03:27:49;13.55;;;5.55;;
33678;SDS011;23143;49.474;11.082;2022-12-18T03:28:23;9.57;;;5.75;;
33678;SDS011;23143;49.474;11.082;2022-12-18T03:28:56;8.00;;;5.37;;
33678;SDS011;23143;49.474;11.082;2022-12-18T03:29:33;18.13;;;8.90;;
33678;SDS011;23143;49.474;11.082;2022-12-18T03:30:19;6.65;;;3.55;;
33678;SDS011;23143;49.474;11.082;2022-12-18T03:30:51;5.90;;;5.03;;
33678;SDS011;23143;49.474;11.082;2022-12-18T03:31:25;10.55;;;6.03;;
33678;SDS011;23143;49.474;11.082;2022-12-18T03:32:01;9.07;;;6.97;;
33678;SDS011;23143;49.474;11.082;2022-12-18T03:33:19;6.55;;;5.85;;
33678;SDS011;23143;49.474;11.082;2022-12-18T03:34:01;9.57;;;3.45;;
33678;SDS011;23143;49.474;11.082;2022-12-18T03:34:35;9.98;;;4.68;;
33678;SDS011;23143;49.474;11.082;2022-12-18T03:35:07;11.88;;;4.68;;
33678;SDS011;23143;49.474;11.082;2022-12-18T03:35:39;17.00;;;6.72;;
33678;SDS011;23143;49.474;11.082;2022-12-18T03:36:12;11.57;;;6.80;;
33678;SDS011;23143;49.474;11.082;2022-12-18T03:36:43;18.67;;;8.53;;
33678;SDS011;23143;49.474;11.082;2022-12-18T03:37:13;9.47;;;4.77;;
33678;SDS011;23143;49.474;11.082;2022-12-18T03:37:44;12.33;;;7.80;;
33678;SDS011;23143;49.474;11.082;2022-12-18T03:38:15;10.17;;;7.43;;
33678;SDS011;23143;49.474;11.082;2022-12-18T03:38:45;12.67;;;5.17;;
33678;SDS011;23143;49.474;11.082;2022-12-18T03:39:17;16.80;;;7.72;;